sensor_id;sensor_type;location;lat;lon;timestamp;pressure;altitude;pressure_sealevel;temperature;humidity
63691;BME280;49837;57.280;27.070;2024-02-26T00:00:54;99940.72;;;2.5;100.0
63691;BME280;49837;57.280;27.070;2024-02-26T00:01:54;99938.23;;;2.45;100.0
63691;BME280;49837;57.280;27.070;2024-02-26T00:02:55;99937.33;;;2.48;100.0
63691;BME280;49837;57.280;27.070;2024-02-26T00:03:55;99935.03;;;2.5;100.0
63691;BME280;49837;57.280;27.070;2024-02-26T00:04:55;99936.27;;;2.45;100.0
63691;BME280;49837;57.280;27.070;2024-02-26T00:05:56;99933.81;;;2.48;100.0
63691;BME280;49837;57.280;27.070;2024-02-26T00:06:56;99938.16;;;2.48;100.0
63691;BME280;49837;57.280;27.070;2024-02-26T00:07:56;99931.83;;;2.51;100.0
63691;BME280;49837;57.280;27.070;2024-02-26T00:08:57;99928.69;;;2.51;100.0
63691;BME280;49837;57.280;27.070;2024-02-26T00:09:57;99929.93;;;2.49;100.0
63691;BME280;49837;57.280;27.070;2024-02-26T00:10:58;99922.61;;;2.5;100.0
63691;BME280;49837;57.280;27.070;2024-02-26T00:11:58;99921.37;;;2.46;100.0
63691;BME280;49837;57.280;27.070;2024-02-26T00:12:58;99920.62;;;2.45;100.0
63691;BME280;49837;57.280;27.070;2024-02-26T00:13:59;99918.41;;;2.37;100.0
63691;BME280;49837;57.280;27.070;2024-02-26T00:14:59;99920.38;;;2.41;100.0
63691;BME280;49837;57.280;27.070;2024-02-26T00:15:59;99921.22;;;2.4;100.0
63691;BME280;49837;57.280;27.070;2024-02-26T00:17:00;99923.18;;;2.42;100.0
63691;BME280;49837;57.280;27.070;2024-02-26T00:18:00;99922.12;;;2.41;100.0
63691;BME280;49837;57.280;27.070;2024-02-26T00:19:00;99923.02;;;2.37;100.0
63691;BME280;49837;57.280;27.070;2024-02-26T00:20:05;99924.26;;;2.38;100.0
63691;BME280;49837;57.280;27.070;2024-02-26T00:21:03;99926.55;;;2.43;100.0
63691;BME280;49837;57.280;27.070;2024-02-26T00:22:03;99926.97;;;2.43;100.0
63691;BME280;49837;57.280;27.070;2024-02-26T00:23:03;99927.79;;;2.41;100.0
63691;BME280;49837;57.280;27.070;2024-02-26T00:24:04;99925.23;;;2.43;100.0
63691;BME280;49837;57.280;27.070;2024-02-26T00:25:05;99924.17;;;2.44;100.0
63691;BME280;49837;57.280;27.070;2024-02-26T00:26:04;99927.97;;;2.38;100.0
63691;BME280;49837;57.280;27.070;2024-02-26T00:27:04;99927.72;;;2.36;100.0
63691;BME280;49837;57.280;27.070;2024-02-26T00:28:05;99925.32;;;2.44;100.0
63691;BME280;49837;57.280;27.070;2024-02-26T00:29:05;99926.23;;;2.49;100.0
63691;BME280;49837;57.280;27.070;2024-02-26T00:30:07;99927.87;;;2.48;100.0
63691;BME280;49837;57.280;27.070;2024-02-26T00:31:06;99923.49;;;2.44;100.0
63691;BME280;49837;57.280;27.070;2024-02-26T00:32:07;99925.41;;;2.37;100.0
63691;BME280;49837;57.280;27.070;2024-02-26T00:33:07;99926.88;;;2.38;100.0
63691;BME280;49837;57.280;27.070;2024-02-26T00:34:07;99928.61;;;2.38;100.0
63691;BME280;49837;57.280;27.070;2024-02-26T00:35:08;99931.66;;;2.45;100.0
63691;BME280;49837;57.280;27.070;2024-02-26T00:36:08;99921.88;;;2.43;100.0
63691;BME280;49837;57.280;27.070;2024-02-26T00:37:08;99923.69;;;2.4;100.0
63691;BME280;49837;57.280;27.070;2024-02-26T00:38:09;99923.51;;;2.44;100.0
63691;BME280;49837;57.280;27.070;2024-02-26T00:39:09;99924.66;;;2.46;100.0
63691;BME280;49837;57.280;27.070;2024-02-26T00:40:10;99923.42;;;2.45;100.0
63691;BME280;49837;57.280;27.070;2024-02-26T00:41:10;99925.83;;;2.41;100.0
63691;BME280;49837;57.280;27.070;2024-02-26T00:42:10;99926.22;;;2.47;100.0
63691;BME280;49837;57.280;27.070;2024-02-26T00:43:10;99924.91;;;2.48;100.0
63691;BME280;49837;57.280;27.070;2024-02-26T00:44:11;99928.69;;;2.45;100.0
63691;BME280;49837;57.280;27.070;2024-02-26T00:45:12;99927.13;;;2.48;100.0
63691;BME280;49837;57.280;27.070;2024-02-26T00:46:12;99929.6;;;2.44;100.0
63691;BME280;49837;57.280;27.070;2024-02-26T00:47:12;99930.19;;;2.42;100.0
63691;BME280;49837;57.280;27.070;2024-02-26T00:48:12;99925.56;;;2.39;100.0
63691;BME280;49837;57.280;27.070;2024-02-26T00:49:13;99924.99;;;2.43;100.0
63691;BME280;49837;57.280;27.070;2024-02-26T00:50:13;99930.25;;;2.47;100.0
63691;BME280;49837;57.280;27.070;2024-02-26T00:51:14;99925.98;;;2.52;100.0
63691;BME280;49837;57.280;27.070;2024-02-26T00:52:14;99924.09;;;2.48;100.0
63691;BME280;49837;57.280;27.070;2024-02-26T00:53:14;99926.55;;;2.5;100.0
63691;BME280;49837;57.280;27.070;2024-02-26T00:54:14;99920.97;;;2.48;100.0
63691;BME280;49837;57.280;27.070;2024-02-26T00:55:15;99925.48;;;2.49;100.0
63691;BME280;49837;57.280;27.070;2024-02-26T00:56:15;99923.59;;;2.51;100.0
63691;BME280;49837;57.280;27.070;2024-02-26T00:57:16;99927.61;;;2.5;100.0
63691;BME280;49837;57.280;27.070;2024-02-26T00:58:16;99927.3;;;2.49;100.0
63691;BME280;49837;57.280;27.070;2024-02-26T00:59:16;99925.47;;;2.49;100.0
63691;BME280;49837;57.280;27.070;2024-02-26T01:00:17;99925.97;;;2.52;100.0
63691;BME280;49837;57.280;27.070;2024-02-26T01:01:17;99926.95;;;2.44;100.0
63691;BME280;49837;57.280;27.070;2024-02-26T01:02:17;99926.23;;;2.47;100.0
63691;BME280;49837;57.280;27.070;2024-02-26T01:03:18;99926.88;;;2.48;100.0
63691;BME280;49837;57.280;27.070;2024-02-26T01:04:18;99923.66;;;2.48;100.0
63691;BME280;49837;57.280;27.070;2024-02-26T01:05:19;99927.13;;;2.47;100.0
63691;BME280;49837;57.280;27.070;2024-02-26T01:06:19;99927.95;;;2.49;100.0
63691;BME280;49837;57.280;27.070;2024-02-26T01:07:19;99925.73;;;2.48;100.0
63691;BME280;49837;57.280;27.070;2024-02-26T01:08:20;99929.26;;;2.48;100.0
63691;BME280;49837;57.280;27.070;2024-02-26T01:09:20;99926.88;;;2.45;100.0
63691;BME280;49837;57.280;27.070;2024-02-26T01:10:21;99923.09;;;2.42;100.0
63691;BME280;49837;57.280;27.070;2024-02-26T01:11:21;99923.16;;;2.5;100.0
63691;BME280;49837;57.280;27.070;2024-02-26T01:12:21;99923.0;;;2.5;100.0
63691;BME280;49837;57.280;27.070;2024-02-26T01:13:22;99922.69;;;2.49;100.0
63691;BME280;49837;57.280;27.070;2024-02-26T01:14:22;99921.19;;;2.49;100.0
63691;BME280;49837;57.280;27.070;2024-02-26T01:15:22;99922.94;;;2.44;100.0
63691;BME280;49837;57.280;27.070;2024-02-26T01:16:23;99919.8;;;2.46;100.0
63691;BME280;49837;57.280;27.070;2024-02-26T01:17:23;99920.97;;;2.47;100.0
63691;BME280;49837;57.280;27.070;2024-02-26T01:18:23;99919.98;;;2.46;100.0
63691;BME280;49837;57.280;27.070;2024-02-26T01:19:24;99923.93;;;2.47;100.0
63691;BME280;49837;57.280;27.070;2024-02-26T01:20:24;99923.2;;;2.42;100.0
63691;BME280;49837;57.280;27.070;2024-02-26T01:21:24;99920.64;;;2.44;100.0
63691;BME280;49837;57.280;27.070;2024-02-26T01:22:25;99914.71;;;2.44;100.0
63691;BME280;49837;57.280;27.070;2024-02-26T01:23:25;99918.24;;;2.47;100.0
63691;BME280;49837;57.280;27.070;2024-02-26T01:24:26;99916.27;;;2.47;100.0
63691;BME280;49837;57.280;27.070;2024-02-26T01:25:26;99916.69;;;2.48;100.0
63691;BME280;49837;57.280;27.070;2024-02-26T01:26:26;99915.52;;;2.44;100.0
63691;BME280;49837;57.280;27.070;2024-02-26T01:27:27;99910.81;;;2.46;100.0
63691;BME280;49837;57.280;27.070;2024-02-26T01:28:27;99911.49;;;2.39;100.0
63691;BME280;49837;57.280;27.070;2024-02-26T01:29:27;99907.3;;;2.39;100.0
63691;BME280;49837;57.280;27.070;2024-02-26T01:30:28;99905.8;;;2.4;100.0
63691;BME280;49837;57.280;27.070;2024-02-26T01:31:28;99902.69;;;2.44;100.0
63691;BME280;49837;57.280;27.070;2024-02-26T01:32:28;99896.69;;;2.42;100.0
63691;BME280;49837;57.280;27.070;2024-02-26T01:33:29;99895.36;;;2.43;100.0
63691;BME280;49837;57.280;27.070;2024-02-26T01:34:29;99894.95;;;2.44;100.0
63691;BME280;49837;57.280;27.070;2024-02-26T01:35:30;99889.12;;;2.41;100.0
63691;BME280;49837;57.280;27.070;2024-02-26T01:36:30;99887.95;;;2.4;100.0
63691;BME280;49837;57.280;27.070;2024-02-26T01:37:30;99886.14;;;2.43;100.0
63691;BME280;49837;57.280;27.070;2024-02-26T01:38:31;99889.84;;;2.4;100.0
63691;BME280;49837;57.280;27.070;2024-02-26T01:39:31;99885.57;;;2.36;100.0
63691;BME280;49837;57.280;27.070;2024-02-26T01:40:31;99878.33;;;2.38;100.0
63691;BME280;49837;57.280;27.070;2024-02-26T01:41:32;99881.36;;;2.44;100.0
63691;BME280;49837;57.280;27.070;2024-02-26T01:42:33;99881.61;;;2.42;100.0
63691;BME280;49837;57.280;27.070;2024-02-26T01:43:33;99877.59;;;2.41;100.0
63691;BME280;49837;57.280;27.070;2024-02-26T01:44:33;99874.88;;;2.37;100.0
63691;BME280;49837;57.280;27.070;2024-02-26T01:45:33;99874.53;;;2.37;100.0
63691;BME280;49837;57.280;27.070;2024-02-26T01:46:34;99874.8;;;2.38;100.0
63691;BME280;49837;57.280;27.070;2024-02-26T01:47:34;99875.78;;;2.41;100.0
63691;BME280;49837;57.280;27.070;2024-02-26T01:48:35;99874.88;;;2.42;100.0
63691;BME280;49837;57.280;27.070;2024-02-26T01:49:35;99877.1;;;2.4;100.0
63691;BME280;49837;57.280;27.070;2024-02-26T01:50:35;99875.68;;;2.38;100.0
63691;BME280;49837;57.280;27.070;2024-02-26T01:51:36;99875.44;;;2.4;100.0
63691;BME280;49837;57.280;27.070;2024-02-26T01:52:36;99876.43;;;2.41;100.0
63691;BME280;49837;57.280;27.070;2024-02-26T01:53:37;99878.97;;;2.37;100.0
63691;BME280;49837;57.280;27.070;2024-02-26T01:54:37;99876.19;;;2.37;100.0
63691;BME280;49837;57.280;27.070;2024-02-26T01:55:37;99877.98;;;2.35;100.0
63691;BME280;49837;57.280;27.070;2024-02-26T01:56:38;99878.83;;;2.37;100.0
63691;BME280;49837;57.280;27.070;2024-02-26T01:57:39;99875.7;;;2.39;100.0
63691;BME280;49837;57.280;27.070;2024-02-26T01:58:38;99872.39;;;2.39;100.0
63691;BME280;49837;57.280;27.070;2024-02-26T01:59:39;99875.52;;;2.35;100.0
63691;BME280;49837;57.280;27.070;2024-02-26T02:00:39;99874.14;;;2.35;100.0
63691;BME280;49837;57.280;27.070;2024-02-26T02:01:42;99868.78;;;2.42;100.0
63691;BME280;49837;57.280;27.070;2024-02-26T02:02:42;99869.6;;;2.42;100.0
63691;BME280;49837;57.280;27.070;2024-02-26T02:03:42;99869.02;;;2.42;100.0
63691;BME280;49837;57.280;27.070;2024-02-26T02:04:42;99866.97;;;2.4;100.0
63691;BME280;49837;57.280;27.070;2024-02-26T02:05:43;99869.92;;;2.4;100.0
63691;BME280;49837;57.280;27.070;2024-02-26T02:06:45;99869.34;;;2.41;100.0
63691;BME280;49837;57.280;27.070;2024-02-26T02:07:43;99869.03;;;2.42;100.0
63691;BME280;49837;57.280;27.070;2024-02-26T02:08:44;99869.09;;;2.37;100.0
63691;BME280;49837;57.280;27.070;2024-02-26T02:09:44;99870.59;;;2.35;100.0
63691;BME280;49837;57.280;27.070;2024-02-26T02:10:45;99869.7;;;2.32;100.0
63691;BME280;49837;57.280;27.070;2024-02-26T02:11:45;99872.66;;;2.3;100.0
63691;BME280;49837;57.280;27.070;2024-02-26T02:12:45;99872.39;;;2.32;100.0
63691;BME280;49837;57.280;27.070;2024-02-26T02:13:46;99873.3;;;2.38;100.0
63691;BME280;49837;57.280;27.070;2024-02-26T02:14:46;99872.08;;;2.38;100.0
63691;BME280;49837;57.280;27.070;2024-02-26T02:15:46;99868.62;;;2.39;100.0
63691;BME280;49837;57.280;27.070;2024-02-26T02:16:47;99868.62;;;2.34;100.0
63691;BME280;49837;57.280;27.070;2024-02-26T02:17:47;99866.72;;;2.32;100.0
63691;BME280;49837;57.280;27.070;2024-02-26T02:18:47;99863.61;;;2.31;100.0
63691;BME280;49837;57.280;27.070;2024-02-26T02:19:48;99862.77;;;2.28;100.0
63691;BME280;49837;57.280;27.070;2024-02-26T02:20:48;99860.72;;;2.33;100.0
63691;BME280;49837;57.280;27.070;2024-02-26T02:21:48;99859.89;;;2.33;100.0
63691;BME280;49837;57.280;27.070;2024-02-26T02:22:49;99861.56;;;2.26;100.0
63691;BME280;49837;57.280;27.070;2024-02-26T02:23:49;99866.57;;;2.28;100.0
63691;BME280;49837;57.280;27.070;2024-02-26T02:24:52;99865.9;;;2.28;100.0
63691;BME280;49837;57.280;27.070;2024-02-26T02:25:50;99867.98;;;2.28;100.0
63691;BME280;49837;57.280;27.070;2024-02-26T02:26:50;99863.02;;;2.32;100.0
63691;BME280;49837;57.280;27.070;2024-02-26T02:27:52;99865.98;;;2.33;100.0
63691;BME280;49837;57.280;27.070;2024-02-26T02:28:51;99860.3;;;2.29;100.0
63691;BME280;49837;57.280;27.070;2024-02-26T02:29:52;99861.62;;;2.34;100.0
63691;BME280;49837;57.280;27.070;2024-02-26T02:30:52;99863.5;;;2.32;100.0
63691;BME280;49837;57.280;27.070;2024-02-26T02:31:52;99866.23;;;2.3;100.0
63691;BME280;49837;57.280;27.070;2024-02-26T02:32:53;99863.69;;;2.27;100.0
63691;BME280;49837;57.280;27.070;2024-02-26T02:33:53;99863.43;;;2.23;100.0
63691;BME280;49837;57.280;27.070;2024-02-26T02:34:53;99861.47;;;2.29;100.0
63691;BME280;49837;57.280;27.070;2024-02-26T02:35:54;99864.67;;;2.24;100.0
63691;BME280;49837;57.280;27.070;2024-02-26T02:36:54;99865.84;;;2.27;100.0
63691;BME280;49837;57.280;27.070;2024-02-26T02:37:57;99865.82;;;2.27;100.0
63691;BME280;49837;57.280;27.070;2024-02-26T02:38:55;99861.96;;;2.25;100.0
63691;BME280;49837;57.280;27.070;2024-02-26T02:39:55;99860.31;;;2.27;100.0
63691;BME280;49837;57.280;27.070;2024-02-26T02:40:56;99855.95;;;2.25;100.0
63691;BME280;49837;57.280;27.070;2024-02-26T02:41:56;99855.45;;;2.24;100.0
63691;BME280;49837;57.280;27.070;2024-02-26T02:42:56;99855.45;;;2.23;100.0
63691;BME280;49837;57.280;27.070;2024-02-26T02:43:56;99851.84;;;2.25;100.0
63691;BME280;49837;57.280;27.070;2024-02-26T02:44:57;99855.7;;;2.27;100.0
63691;BME280;49837;57.280;27.070;2024-02-26T02:45:57;99853.48;;;2.22;100.0
63691;BME280;49837;57.280;27.070;2024-02-26T02:46:58;99851.58;;;2.23;100.0
63691;BME280;49837;57.280;27.070;2024-02-26T02:47:58;99851.03;;;2.22;100.0
63691;BME280;49837;57.280;27.070;2024-02-26T02:48:58;99847.95;;;2.25;100.0
63691;BME280;49837;57.280;27.070;2024-02-26T02:49:59;99846.08;;;2.24;100.0
63691;BME280;49837;57.280;27.070;2024-02-26T02:50:59;99844.11;;;2.2;100.0
63691;BME280;49837;57.280;27.070;2024-02-26T02:51:59;99839.0;;;2.2;100.0
63691;BME280;49837;57.280;27.070;2024-02-26T02:53:00;99835.7;;;2.22;100.0
63691;BME280;49837;57.280;27.070;2024-02-26T02:54:00;99832.17;;;2.21;100.0
63691;BME280;49837;57.280;27.070;2024-02-26T02:55:01;99831.92;;;2.21;100.0
63691;BME280;49837;57.280;27.070;2024-02-26T02:56:01;99832.33;;;2.22;100.0
63691;BME280;49837;57.280;27.070;2024-02-26T02:57:01;99829.56;;;2.2;100.0
63691;BME280;49837;57.280;27.070;2024-02-26T02:58:02;99834.73;;;2.26;100.0
63691;BME280;49837;57.280;27.070;2024-02-26T02:59:03;99832.17;;;2.26;100.0
63691;BME280;49837;57.280;27.070;2024-02-26T03:00:03;99831.34;;;2.25;100.0
63691;BME280;49837;57.280;27.070;2024-02-26T03:01:03;99827.83;;;2.22;100.0
63691;BME280;49837;57.280;27.070;2024-02-26T03:02:04;99833.56;;;2.23;100.0
63691;BME280;49837;57.280;27.070;2024-02-26T03:03:04;99833.0;;;2.27;100.0
63691;BME280;49837;57.280;27.070;2024-02-26T03:04:04;99834.48;;;2.26;100.0
63691;BME280;49837;57.280;27.070;2024-02-26T03:05:05;99841.81;;;2.22;100.0
63691;BME280;49837;57.280;27.070;2024-02-26T03:06:05;99838.25;;;2.26;100.0
63691;BME280;49837;57.280;27.070;2024-02-26T03:07:05;99837.75;;;2.27;100.0
63691;BME280;49837;57.280;27.070;2024-02-26T03:08:06;99837.19;;;2.26;100.0
63691;BME280;49837;57.280;27.070;2024-02-26T03:09:06;99834.73;;;2.29;100.0
63691;BME280;49837;57.280;27.070;2024-02-26T03:10:07;99835.7;;;2.25;100.0
63691;BME280;49837;57.280;27.070;2024-02-26T03:11:07;99835.28;;;2.27;100.0
63691;BME280;49837;57.280;27.070;2024-02-26T03:12:07;99839.07;;;2.28;100.0
63691;BME280;49837;57.280;27.070;2024-02-26T03:13:07;99835.05;;;2.32;100.0
63691;BME280;49837;57.280;27.070;2024-02-26T03:14:08;99841.06;;;2.29;100.0
63691;BME280;49837;57.280;27.070;2024-02-26T03:15:09;99843.86;;;2.3;100.0
63691;BME280;49837;57.280;27.070;2024-02-26T03:16:09;99838.52;;;2.25;100.0
63691;BME280;49837;57.280;27.070;2024-02-26T03:17:09;99842.03;;;2.23;100.0
63691;BME280;49837;57.280;27.070;2024-02-26T03:18:09;99841.31;;;2.28;100.0
63691;BME280;49837;57.280;27.070;2024-02-26T03:19:09;99845.66;;;2.27;100.0
63691;BME280;49837;57.280;27.070;2024-02-26T03:20:10;99845.1;;;2.26;100.0
63691;BME280;49837;57.280;27.070;2024-02-26T03:21:10;99842.53;;;2.3;100.0
63691;BME280;49837;57.280;27.070;2024-02-26T03:22:11;99847.73;;;2.31;100.0
63691;BME280;49837;57.280;27.070;2024-02-26T03:23:11;99844.77;;;2.29;100.0
63691;BME280;49837;57.280;27.070;2024-02-26T03:24:11;99851.36;;;2.3;100.0
63691;BME280;49837;57.280;27.070;2024-02-26T03:25:12;99855.3;;;2.28;100.0
63691;BME280;49837;57.280;27.070;2024-02-26T03:26:12;99852.84;;;2.27;100.0
63691;BME280;49837;57.280;27.070;2024-02-26T03:27:13;99855.03;;;2.23;100.0
63691;BME280;49837;57.280;27.070;2024-02-26T03:28:13;99853.57;;;2.27;100.0
63691;BME280;49837;57.280;27.070;2024-02-26T03:29:13;99857.34;;;2.25;100.0
63691;BME280;49837;57.280;27.070;2024-02-26T03:30:14;99856.62;;;2.25;100.0
63691;BME280;49837;57.280;27.070;2024-02-26T03:31:14;99853.08;;;2.24;100.0
63691;BME280;49837;57.280;27.070;2024-02-26T03:32:14;99853.88;;;2.23;100.0
63691;BME280;49837;57.280;27.070;2024-02-26T03:33:15;99848.98;;;2.19;100.0
63691;BME280;49837;57.280;27.070;2024-02-26T03:34:15;99848.89;;;2.22;100.0
63691;BME280;49837;57.280;27.070;2024-02-26T03:35:15;99847.55;;;2.22;100.0
63691;BME280;49837;57.280;27.070;2024-02-26T03:36:16;99847.88;;;2.24;100.0
63691;BME280;49837;57.280;27.070;2024-02-26T03:37:16;99850.19;;;2.23;100.0
63691;BME280;49837;57.280;27.070;2024-02-26T03:38:16;99851.52;;;2.15;100.0
63691;BME280;49837;57.280;27.070;2024-02-26T03:39:17;99849.45;;;2.19;100.0
63691;BME280;49837;57.280;27.070;2024-02-26T03:40:17;99852.83;;;2.16;100.0
63691;BME280;49837;57.280;27.070;2024-02-26T03:41:18;99845.52;;;2.14;100.0
63691;BME280;49837;57.280;27.070;2024-02-26T03:42:18;99846.84;;;2.17;100.0
63691;BME280;49837;57.280;27.070;2024-02-26T03:43:18;99841.14;;;2.17;100.0
63691;BME280;49837;57.280;27.070;2024-02-26T03:44:19;99842.3;;;2.11;100.0
63691;BME280;49837;57.280;27.070;2024-02-26T03:45:19;99840.91;;;2.06;100.0
63691;BME280;49837;57.280;27.070;2024-02-26T03:46:19;99837.94;;;2.08;100.0
63691;BME280;49837;57.280;27.070;2024-02-26T03:47:20;99840.99;;;2.08;100.0
63691;BME280;49837;57.280;27.070;2024-02-26T03:48:20;99838.61;;;2.08;100.0
63691;BME280;49837;57.280;27.070;2024-02-26T03:49:21;99839.25;;;2.11;100.0
63691;BME280;49837;57.280;27.070;2024-02-26T03:50:21;99835.71;;;2.15;100.0
63691;BME280;49837;57.280;27.070;2024-02-26T03:51:21;99836.2;;;2.15;100.0
63691;BME280;49837;57.280;27.070;2024-02-26T03:52:22;99834.99;;;2.15;100.0
63691;BME280;49837;57.280;27.070;2024-02-26T03:53:22;99832.75;;;2.19;100.0
63691;BME280;49837;57.280;27.070;2024-02-26T03:54:22;99834.16;;;2.14;100.0
63691;BME280;49837;57.280;27.070;2024-02-26T03:55:23;99838.28;;;2.13;100.0
63691;BME280;49837;57.280;27.070;2024-02-26T03:56:23;99841.81;;;2.13;100.0
63691;BME280;49837;57.280;27.070;2024-02-26T03:57:23;99842.05;;;2.07;100.0
63691;BME280;49837;57.280;27.070;2024-02-26T03:58:25;99838.03;;;2.12;100.0
63691;BME280;49837;57.280;27.070;2024-02-26T03:59:24;99837.13;;;2.1;100.0
63691;BME280;49837;57.280;27.070;2024-02-26T04:00:25;99837.79;;;2.09;100.0
63691;BME280;49837;57.280;27.070;2024-02-26T04:01:25;99831.95;;;2.08;100.0
63691;BME280;49837;57.280;27.070;2024-02-26T04:02:25;99829.71;;;2.12;100.0
63691;BME280;49837;57.280;27.070;2024-02-26T04:03:26;99826.25;;;2.11;100.0
63691;BME280;49837;57.280;27.070;2024-02-26T04:04:26;99826.34;;;2.1;100.0
63691;BME280;49837;57.280;27.070;2024-02-26T04:05:27;99827.9;;;2.07;100.0
63691;BME280;49837;57.280;27.070;2024-02-26T04:06:27;99823.12;;;2.11;100.0
63691;BME280;49837;57.280;27.070;2024-02-26T04:07:27;99826.02;;;2.11;100.0
63691;BME280;49837;57.280;27.070;2024-02-26T04:08:28;99828.89;;;2.08;100.0
63691;BME280;49837;57.280;27.070;2024-02-26T04:09:28;99825.02;;;2.12;100.0
63691;BME280;49837;57.280;27.070;2024-02-26T04:10:28;99824.95;;;2.14;100.0
63691;BME280;49837;57.280;27.070;2024-02-26T04:11:29;99820.83;;;2.14;100.0
63691;BME280;49837;57.280;27.070;2024-02-26T04:12:29;99820.66;;;2.11;100.0
63691;BME280;49837;57.280;27.070;2024-02-26T04:13:29;99817.72;;;2.12;100.0
63691;BME280;49837;57.280;27.070;2024-02-26T04:14:30;99815.64;;;2.12;100.0
63691;BME280;49837;57.280;27.070;2024-02-26T04:15:30;99819.12;;;2.03;100.0
63691;BME280;49837;57.280;27.070;2024-02-26T04:16:31;99818.7;;;2.03;100.0
63691;BME280;49837;57.280;27.070;2024-02-26T04:17:31;99819.59;;;2.02;100.0
63691;BME280;49837;57.280;27.070;2024-02-26T04:18:32;99820.52;;;2.06;100.0
63691;BME280;49837;57.280;27.070;2024-02-26T04:19:32;99822.98;;;2.09;100.0
63691;BME280;49837;57.280;27.070;2024-02-26T04:20:32;99821.5;;;2.07;100.0
63691;BME280;49837;57.280;27.070;2024-02-26T04:21:33;99824.78;;;2.06;100.0
63691;BME280;49837;57.280;27.070;2024-02-26T04:22:33;99821.65;;;2.05;100.0
63691;BME280;49837;57.280;27.070;2024-02-26T04:23:33;99822.55;;;2.1;100.0
63691;BME280;49837;57.280;27.070;2024-02-26T04:24:36;99826.27;;;2.13;100.0
63691;BME280;49837;57.280;27.070;2024-02-26T04:25:34;99828.32;;;2.12;100.0
63691;BME280;49837;57.280;27.070;2024-02-26T04:26:34;99831.27;;;2.13;100.0
63691;BME280;49837;57.280;27.070;2024-02-26T04:27:35;99828.8;;;2.14;100.0
63691;BME280;49837;57.280;27.070;2024-02-26T04:28:35;99827.98;;;2.15;100.0
63691;BME280;49837;57.280;27.070;2024-02-26T04:29:35;99823.45;;;2.11;100.0
63691;BME280;49837;57.280;27.070;2024-02-26T04:30:36;99824.28;;;2.08;100.0
63691;BME280;49837;57.280;27.070;2024-02-26T04:31:37;99818.38;;;2.08;100.0
63691;BME280;49837;57.280;27.070;2024-02-26T04:32:36;99817.3;;;2.07;100.0
63691;BME280;49837;57.280;27.070;2024-02-26T04:33:37;99822.08;;;2.06;100.0
63691;BME280;49837;57.280;27.070;2024-02-26T04:34:37;99824.28;;;2.06;100.0
63691;BME280;49837;57.280;27.070;2024-02-26T04:35:38;99821.76;;;2.05;100.0
63691;BME280;49837;57.280;27.070;2024-02-26T04:36:38;99818.05;;;2.01;100.0
63691;BME280;49837;57.280;27.070;2024-02-26T04:37:38;99820.17;;;2.02;100.0
63691;BME280;49837;57.280;27.070;2024-02-26T04:38:39;99823.55;;;2.03;100.0
63691;BME280;49837;57.280;27.070;2024-02-26T04:39:39;99822.81;;;2.06;100.0
63691;BME280;49837;57.280;27.070;2024-02-26T04:40:39;99821.42;;;2.08;100.0
63691;BME280;49837;57.280;27.070;2024-02-26T04:41:40;99819.11;;;2.11;100.0
63691;BME280;49837;57.280;27.070;2024-02-26T04:42:40;99822.06;;;2.04;100.0
63691;BME280;49837;57.280;27.070;2024-02-26T04:43:40;99822.56;;;2.07;100.0
63691;BME280;49837;57.280;27.070;2024-02-26T04:44:41;99822.66;;;2.1;100.0
63691;BME280;49837;57.280;27.070;2024-02-26T04:45:41;99824.95;;;2.1;100.0
63691;BME280;49837;57.280;27.070;2024-02-26T04:46:42;99825.67;;;2.1;100.0
63691;BME280;49837;57.280;27.070;2024-02-26T04:47:42;99825.78;;;2.12;100.0
63691;BME280;49837;57.280;27.070;2024-02-26T04:48:42;99826.03;;;2.09;100.0
63691;BME280;49837;57.280;27.070;2024-02-26T04:49:43;99824.19;;;2.11;100.0
63691;BME280;49837;57.280;27.070;2024-02-26T04:50:43;99825.54;;;2.07;100.0
63691;BME280;49837;57.280;27.070;2024-02-26T04:51:43;99823.12;;;2.07;100.0
63691;BME280;49837;57.280;27.070;2024-02-26T04:52:44;99827.83;;;2.1;100.0
63691;BME280;49837;57.280;27.070;2024-02-26T04:53:44;99825.85;;;2.11;100.0
63691;BME280;49837;57.280;27.070;2024-02-26T04:54:45;99826.27;;;2.12;100.0
63691;BME280;49837;57.280;27.070;2024-02-26T04:55:45;99830.11;;;2.11;100.0
63691;BME280;49837;57.280;27.070;2024-02-26T04:56:45;99829.33;;;2.08;100.0
63691;BME280;49837;57.280;27.070;2024-02-26T04:57:46;99831.53;;;2.06;100.0
63691;BME280;49837;57.280;27.070;2024-02-26T04:58:46;99830.79;;;2.08;100.0
63691;BME280;49837;57.280;27.070;2024-02-26T04:59:46;99827.92;;;2.09;100.0
63691;BME280;49837;57.280;27.070;2024-02-26T05:00:47;99831.12;;;2.08;100.0
63691;BME280;49837;57.280;27.070;2024-02-26T05:01:47;99835.81;;;2.08;100.0
63691;BME280;49837;57.280;27.070;2024-02-26T05:02:48;99833.16;;;2.11;100.0
63691;BME280;49837;57.280;27.070;2024-02-26T05:03:48;99829.47;;;2.12;100.0
63691;BME280;49837;57.280;27.070;2024-02-26T05:04:48;99830.37;;;2.1;100.0
63691;BME280;49837;57.280;27.070;2024-02-26T05:05:49;99831.2;;;2.1;100.0
63691;BME280;49837;57.280;27.070;2024-02-26T05:06:49;99832.25;;;2.11;100.0
63691;BME280;49837;57.280;27.070;2024-02-26T05:07:49;99828.56;;;2.1;100.0
63691;BME280;49837;57.280;27.070;2024-02-26T05:08:50;99830.62;;;2.09;100.0
63691;BME280;49837;57.280;27.070;2024-02-26T05:09:50;99834.66;;;2.07;100.0
63691;BME280;49837;57.280;27.070;2024-02-26T05:10:50;99832.03;;;2.05;100.0
63691;BME280;49837;57.280;27.070;2024-02-26T05:11:51;99830.62;;;2.05;100.0
63691;BME280;49837;57.280;27.070;2024-02-26T05:12:51;99836.73;;;2.06;100.0
63691;BME280;49837;57.280;27.070;2024-02-26T05:13:52;99835.89;;;2.05;100.0
63691;BME280;49837;57.280;27.070;2024-02-26T05:14:52;99838.38;;;2.05;100.0
63691;BME280;49837;57.280;27.070;2024-02-26T05:15:52;99834.5;;;2.08;100.0
63691;BME280;49837;57.280;27.070;2024-02-26T05:16:53;99834.5;;;2.09;100.0
63691;BME280;49837;57.280;27.070;2024-02-26T05:17:53;99835.06;;;2.07;100.0
63691;BME280;49837;57.280;27.070;2024-02-26T05:18:54;99832.27;;;2.03;100.0
63691;BME280;49837;57.280;27.070;2024-02-26T05:19:54;99828.64;;;1.98;100.0
63691;BME280;49837;57.280;27.070;2024-02-26T05:20:54;99833.0;;;2.01;100.0